Fort Raleigh National Histor, North Carolina
Current Conditions -  °F | °C
As of 4:55 AM on Tuesday 21 Oct 2014 (Local Time) from KMQI Reporting Station
Scattered Clouds Scattered Clouds  
Wind Chill: 63°   Ceiling: Unl
Heat Index: 63°   Visibility: 10mi
Dew Point: 61°   Wind: 8mph
Humidity: 92%   Direction: 210°SSW
Pressure: 29.93"   Gusts: NA
Location:  35.8834°N, 75.6616°W
Report Text: KMQI 210855Z AUTO 21007KT 10SM SCT033 SCT070 17/16 A2993 RMK AO2 60008 T01730160
Loading
Personal Weather Stations






























Interactive Weather Map
Tropical Storm Tracking
New forecast layout! Learn more

10-Day Weather Forecast

Advertisements
Track Severe Weather on mobile